createdAt,value
2023-04-13T00:00:27.852Z,55.20
2023-04-13T00:03:17.762Z,55.21
2023-04-13T00:05:46.776Z,55.27
2023-04-13T00:08:17.212Z,55.27
2023-04-13T00:10:46.211Z,55.53
2023-04-13T00:13:15.320Z,55.33
2023-04-13T00:15:43.916Z,55.26
2023-04-13T00:18:12.414Z,55.21
2023-04-13T00:20:41.937Z,55.33
2023-04-13T00:23:10.290Z,55.41
2023-04-13T00:25:38.227Z,55.38
2023-04-13T00:28:06.719Z,55.49
2023-04-13T00:30:34.959Z,55.43
2023-04-13T00:33:05.997Z,55.47
2023-04-13T00:35:34.238Z,55.54
2023-04-13T00:38:05.067Z,55.77
2023-04-13T00:40:33.258Z,55.70
2023-04-13T00:43:02.206Z,55.80
2023-04-13T00:45:30.708Z,55.87
2023-04-13T00:48:00.164Z,55.90
2023-04-13T00:50:28.571Z,55.89
2023-04-13T00:52:58.026Z,55.85
2023-04-13T00:55:27.851Z,55.86
2023-04-13T00:57:56.191Z,55.87
2023-04-13T01:00:25.727Z,55.97
2023-04-13T01:02:55.907Z,55.99
2023-04-13T01:05:26.122Z,55.99
2023-04-13T01:08:18.778Z,55.91
2023-04-13T01:11:13.267Z,56.00
2023-04-13T01:13:44.420Z,56.16
2023-04-13T01:16:19.028Z,56.19
2023-04-13T01:18:52.475Z,56.17
2023-04-13T01:21:25.028Z,56.08
2023-04-13T01:24:02.154Z,56.07
2023-04-13T01:26:46.645Z,56.16
2023-04-13T01:29:14.943Z,56.27
2023-04-13T01:31:44.050Z,56.19
2023-04-13T01:34:12.199Z,56.28
2023-04-13T01:36:40.406Z,56.30
2023-04-13T01:39:10.568Z,56.28
2023-04-13T01:41:38.729Z,56.31
2023-04-13T01:44:07.157Z,56.36
2023-04-13T01:46:35.727Z,56.31
2023-04-13T01:49:11.023Z,56.23
2023-04-13T01:52:02.138Z,56.26
2023-04-13T01:54:33.794Z,56.29
2023-04-13T01:57:02.314Z,56.36
2023-04-13T01:59:30.648Z,56.43
2023-04-13T02:01:59.359Z,56.35
2023-04-13T02:04:28.202Z,56.33
2023-04-13T02:06:56.377Z,56.36
2023-04-13T02:09:31.686Z,56.43
2023-04-13T02:11:59.731Z,56.40
2023-04-13T02:14:27.641Z,56.32
2023-04-13T02:16:55.799Z,56.37
2023-04-13T02:19:24.760Z,56.32
2023-04-13T02:21:53.488Z,56.35
2023-04-13T02:24:21.733Z,56.36
2023-04-13T02:26:49.724Z,56.26
2023-04-13T02:29:17.696Z,56.35
2023-04-13T02:31:46.490Z,56.23
2023-04-13T02:34:14.836Z,56.36
2023-04-13T02:36:43.226Z,56.57
2023-04-13T02:39:11.150Z,56.57
2023-04-13T02:41:42.013Z,56.48
2023-04-13T02:44:11.550Z,56.43
2023-04-13T02:46:47.548Z,56.42
2023-04-13T02:49:17.314Z,56.22
2023-04-13T02:51:55.034Z,56.35
2023-04-13T02:54:30.065Z,56.37
2023-04-13T02:56:58.543Z,56.41
2023-04-13T02:59:26.801Z,56.37
2023-04-13T03:01:58.975Z,56.32
2023-04-13T03:04:29.244Z,56.44
2023-04-13T03:06:58.467Z,56.32
2023-04-13T03:09:26.813Z,56.33
2023-04-13T03:11:56.778Z,56.31
2023-04-13T03:14:29.814Z,56.28
2023-04-13T03:17:05.326Z,56.50
2023-04-13T03:19:38.405Z,56.57
2023-04-13T03:22:06.832Z,56.54
2023-04-13T03:24:37.302Z,56.73
2023-04-13T03:27:07.646Z,56.72
2023-04-13T03:29:39.776Z,56.76
2023-04-13T03:32:08.403Z,56.85
2023-04-13T03:34:43.798Z,56.94
2023-04-13T03:37:12.746Z,56.93
2023-04-13T03:39:41.243Z,56.99
2023-04-13T03:42:11.619Z,57.10
2023-04-13T03:44:43.052Z,57.25
2023-04-13T03:47:11.436Z,57.21
2023-04-13T03:49:39.375Z,57.28
2023-04-13T03:52:07.387Z,57.17
2023-04-13T03:54:40.207Z,57.13
2023-04-13T03:57:08.391Z,57.28
2023-04-13T03:59:36.429Z,57.35
2023-04-13T04:02:04.792Z,57.32
2023-04-13T04:04:33.757Z,57.49
2023-04-13T04:07:01.772Z,57.42
2023-04-13T04:09:29.924Z,57.53
2023-04-13T04:11:58.041Z,57.48
2023-04-13T04:14:36.427Z,57.48
2023-04-13T04:17:14.786Z,57.45
2023-04-13T04:19:43.109Z,57.60
2023-04-13T04:22:14.023Z,57.66
2023-04-13T04:24:42.504Z,57.66
2023-04-13T04:27:14.353Z,57.64
2023-04-13T04:29:49.832Z,57.83
2023-04-13T04:32:24.234Z,57.81
2023-04-13T04:34:53.273Z,57.84
2023-04-13T04:37:22.163Z,57.91
2023-04-13T04:40:01.365Z,58.04
2023-04-13T04:42:29.299Z,57.96
2023-04-13T04:44:57.592Z,58.11
2023-04-13T04:47:30.100Z,58.17
2023-04-13T04:50:21.112Z,58.23
2023-04-13T04:52:53.647Z,58.34
2023-04-13T04:55:23.308Z,58.24
2023-04-13T04:57:51.630Z,58.38
2023-04-13T05:00:21.265Z,58.46
2023-04-13T05:03:01.168Z,58.45
2023-04-13T05:05:30.769Z,58.50
2023-04-13T05:08:01.256Z,58.55
2023-04-13T05:10:30.116Z,58.61
2023-04-13T05:12:58.965Z,58.85
2023-04-13T05:15:28.253Z,58.78
2023-04-13T05:17:56.537Z,58.76
2023-04-13T05:20:28.067Z,58.84
2023-04-13T05:23:01.571Z,58.85
2023-04-13T05:25:29.781Z,59.01
2023-04-13T05:28:00.995Z,58.99
2023-04-13T05:30:29.068Z,59.03
2023-04-13T05:32:57.080Z,59.04
2023-04-13T05:35:28.011Z,59.08
2023-04-13T05:37:57.320Z,59.20
2023-04-13T05:40:26.045Z,59.19
2023-04-13T05:42:54.448Z,59.31
2023-04-13T05:45:25.714Z,59.28
2023-04-13T05:48:02.608Z,59.13
2023-04-13T05:50:30.971Z,59.19
2023-04-13T05:52:59.149Z,59.33
2023-04-13T05:55:29.876Z,59.28
2023-04-13T05:58:06.062Z,59.30
2023-04-13T06:00:34.512Z,59.27
2023-04-13T06:03:04.916Z,59.27
2023-04-13T06:05:35.551Z,59.37
2023-04-13T06:08:03.829Z,59.36
2023-04-13T06:10:31.872Z,59.38
2023-04-13T06:12:59.875Z,59.28
2023-04-13T06:15:27.870Z,59.23
2023-04-13T06:17:55.767Z,59.16
2023-04-13T06:20:24.409Z,59.15
2023-04-13T06:22:52.264Z,59.12
2023-04-13T06:25:21.315Z,59.16
2023-04-13T06:27:50.138Z,59.13
2023-04-13T06:30:18.970Z,59.14
2023-04-13T06:32:47.810Z,59.19
2023-04-13T06:35:17.699Z,59.04
2023-04-13T06:37:47.452Z,59.06
2023-04-13T06:40:21.075Z,60.64
2023-04-13T06:43:00.968Z,61.18
2023-04-13T06:45:48.204Z,61.22
2023-04-13T06:48:21.330Z,60.83
2023-04-13T06:50:52.304Z,60.36
2023-04-13T06:53:20.899Z,60.27
2023-04-13T06:55:48.862Z,60.10
2023-04-13T06:58:17.295Z,59.89
2023-04-13T07:00:45.510Z,59.65
2023-04-13T07:03:13.696Z,59.52
2023-04-13T07:05:45.058Z,59.41
2023-04-13T07:08:15.431Z,59.48
2023-04-13T07:10:44.266Z,59.48
2023-04-13T07:13:18.410Z,59.53
2023-04-13T07:15:47.012Z,59.41
2023-04-13T07:18:15.183Z,59.30
2023-04-13T07:20:43.176Z,59.23
2023-04-13T07:23:12.547Z,59.12
2023-04-13T07:25:41.037Z,59.13
2023-04-13T07:28:15.685Z,59.24
2023-04-13T07:30:44.906Z,59.24
2023-04-13T07:33:13.555Z,59.25
2023-04-13T07:35:41.614Z,59.15
2023-04-13T07:38:10.622Z,59.25
2023-04-13T07:40:38.565Z,59.05
2023-04-13T07:43:09.406Z,58.59
2023-04-13T07:45:38.986Z,58.41
2023-04-13T07:48:08.171Z,58.30
2023-04-13T07:50:42.082Z,58.31
2023-04-13T07:53:13.150Z,58.33
2023-04-13T07:55:41.472Z,58.35
2023-04-13T07:58:09.614Z,58.77
2023-04-13T08:00:37.876Z,58.74
2023-04-13T08:03:07.158Z,58.88
2023-04-13T08:05:36.837Z,59.17
2023-04-13T08:08:05.158Z,58.95
2023-04-13T08:10:33.143Z,59.34
2023-04-13T08:13:03.314Z,59.45
2023-04-13T08:15:31.473Z,59.59
2023-04-13T08:18:00.583Z,59.65
2023-04-13T08:20:29.750Z,59.97
2023-04-13T08:22:58.377Z,59.95
2023-04-13T08:25:26.788Z,60.38
2023-04-13T08:27:54.890Z,60.57
2023-04-13T08:30:23.065Z,60.68
2023-04-13T08:32:58.310Z,60.88
2023-04-13T08:35:26.631Z,61.19
2023-04-13T08:37:55.033Z,61.32
2023-04-13T08:40:23.133Z,61.51
2023-04-13T08:42:55.060Z,61.33
2023-04-13T08:45:23.222Z,61.54
2023-04-13T08:47:51.580Z,61.45
2023-04-13T08:50:22.677Z,61.38
2023-04-13T08:52:54.271Z,61.55
2023-04-13T08:55:22.864Z,61.64
2023-04-13T08:57:56.764Z,61.60
2023-04-13T09:00:25.477Z,61.09
2023-04-13T09:03:05.708Z,61.05
2023-04-13T09:05:42.037Z,60.82
2023-04-13T09:08:13.638Z,60.89
2023-04-13T09:10:42.439Z,60.82
2023-04-13T09:13:10.633Z,60.66
2023-04-13T09:15:39.075Z,60.54
2023-04-13T09:18:23.506Z,60.54
2023-04-13T09:20:59.974Z,60.79
2023-04-13T09:23:27.991Z,60.71
2023-04-13T09:26:06.898Z,60.88
2023-04-13T09:28:45.701Z,60.85
2023-04-13T09:31:13.885Z,60.94
2023-04-13T09:33:49.994Z,60.81
2023-04-13T09:36:20.785Z,61.18
2023-04-13T09:38:53.972Z,61.05
2023-04-13T09:41:40.766Z,61.05
2023-04-13T09:44:17.956Z,61.32
2023-04-13T09:47:02.496Z,61.56
2023-04-13T09:49:38.979Z,61.52
2023-04-13T09:52:08.328Z,61.51
2023-04-13T09:54:36.666Z,61.64
2023-04-13T09:57:05.105Z,61.60
2023-04-13T09:59:34.035Z,61.54
2023-04-13T10:02:03.646Z,61.55
2023-04-13T10:04:31.896Z,61.39
2023-04-13T10:06:59.816Z,61.62
2023-04-13T10:09:27.778Z,61.87
2023-04-13T10:11:56.754Z,61.85
2023-04-13T10:14:31.438Z,61.75
2023-04-13T10:17:31.645Z,61.68
2023-04-13T10:20:07.916Z,61.72
2023-04-13T10:22:36.270Z,61.88
2023-04-13T10:25:06.988Z,61.99
2023-04-13T10:27:36.541Z,61.70
2023-04-13T10:30:18.228Z,61.60
2023-04-13T10:32:46.330Z,61.83
2023-04-13T10:35:15.855Z,61.76
2023-04-13T10:37:46.122Z,61.86
2023-04-13T10:40:16.258Z,61.82
2023-04-13T10:42:52.513Z,61.99
2023-04-13T10:45:28.487Z,62.08
2023-04-13T10:47:58.601Z,62.06
2023-04-13T10:50:29.733Z,62.45
2023-04-13T10:53:00.595Z,62.82
2023-04-13T10:55:29.327Z,62.70
2023-04-13T10:57:59.465Z,62.38
2023-04-13T11:00:44.637Z,62.76
2023-04-13T11:03:17.002Z,62.77
2023-04-13T11:05:47.424Z,62.90
2023-04-13T11:08:20.847Z,62.90
2023-04-13T11:10:52.787Z,62.90
2023-04-13T11:13:21.859Z,63.29
2023-04-13T11:15:49.885Z,63.10
2023-04-13T11:18:26.527Z,63.38
2023-04-13T11:20:54.877Z,63.56
2023-04-13T11:23:24.363Z,63.58
2023-04-13T11:25:58.523Z,63.77
2023-04-13T11:28:36.877Z,63.66
2023-04-13T11:31:06.342Z,63.40
2023-04-13T11:33:34.339Z,63.53
2023-04-13T11:36:02.542Z,63.52
2023-04-13T11:38:30.565Z,63.55
2023-04-13T11:43:37.752Z,63.82
2023-04-13T11:46:06.048Z,64.14
2023-04-13T11:48:34.381Z,64.38
2023-04-13T11:51:02.666Z,64.03
2023-04-13T11:53:32.189Z,63.98
2023-04-13T11:56:00.733Z,63.71
2023-04-13T11:58:28.720Z,63.79
2023-04-13T12:01:02.176Z,64.12
2023-04-13T12:03:42.514Z,63.86
2023-04-13T12:06:22.175Z,63.58
2023-04-13T12:08:57.773Z,63.78
2023-04-13T12:11:43.935Z,63.74
2023-04-13T12:19:27.230Z,63.21
2023-04-13T12:21:57.583Z,63.19
2023-04-13T12:24:38.271Z,63.90
2023-04-13T12:29:41.042Z,63.18
2023-04-13T12:32:17.014Z,62.60
2023-04-13T12:34:45.261Z,62.75
2023-04-13T12:37:13.183Z,63.04
2023-04-13T12:39:42.142Z,62.99
2023-04-13T12:42:10.057Z,62.80
2023-04-13T12:44:37.993Z,63.10
2023-04-13T12:47:06.796Z,63.26
2023-04-13T12:49:34.658Z,63.39
2023-04-13T12:52:02.507Z,63.15
2023-04-13T12:54:30.880Z,63.07
2023-04-13T12:56:59.784Z,63.34
2023-04-13T12:59:27.793Z,63.28
2023-04-13T13:01:56.012Z,63.34
2023-04-13T13:04:24.002Z,63.36
2023-04-13T13:06:52.468Z,63.60
2023-04-13T13:09:20.730Z,63.28
2023-04-13T13:11:48.765Z,63.04
2023-04-13T13:14:16.690Z,63.06
2023-04-13T13:16:44.631Z,63.15
2023-04-13T13:19:12.497Z,63.27
2023-04-13T13:21:40.427Z,63.32
2023-04-13T13:24:08.375Z,63.39
2023-04-13T13:27:00.081Z,63.45
2023-04-13T13:29:24.179Z,63.51
2023-04-13T13:31:52.533Z,63.43
2023-04-13T13:34:20.590Z,63.54
2023-04-13T13:36:49.545Z,63.58
2023-04-13T13:39:18.827Z,63.47
2023-04-13T13:41:47.003Z,63.54
2023-04-13T13:44:15.453Z,63.50
2023-04-13T13:46:43.824Z,63.66
2023-04-13T13:49:11.982Z,63.70
2023-04-13T13:51:43.149Z,63.63
2023-04-13T13:54:12.861Z,63.67
2023-04-13T13:56:40.721Z,63.77
2023-04-13T13:59:08.990Z,63.67
2023-04-13T14:01:37.856Z,63.59
2023-04-13T14:04:05.930Z,63.75
2023-04-13T14:06:33.944Z,63.74
2023-04-13T14:09:02.302Z,63.63
2023-04-13T14:11:31.891Z,63.69
2023-04-13T14:14:10.868Z,63.94
2023-04-13T14:16:39.372Z,64.00
2023-04-13T14:19:07.383Z,64.05
2023-04-13T14:21:35.341Z,64.18
2023-04-13T14:24:03.378Z,64.11
2023-04-13T14:26:31.289Z,64.47
2023-04-13T14:28:59.326Z,64.72
2023-04-13T14:31:27.525Z,64.77
2023-04-13T14:33:55.887Z,64.61
2023-04-13T14:36:24.542Z,64.75
2023-04-13T14:38:52.562Z,64.69
2023-04-13T14:41:21.143Z,64.87
2023-04-13T14:43:49.143Z,64.72
2023-04-13T14:46:17.080Z,64.72
2023-04-13T14:48:44.969Z,64.98
2023-04-13T14:51:17.193Z,65.18
2023-04-13T14:53:45.155Z,65.19
2023-04-13T14:56:13.033Z,65.16
2023-04-13T14:58:41.117Z,65.32
2023-04-13T15:01:17.131Z,65.34
2023-04-13T15:03:46.946Z,65.45
2023-04-13T15:06:15.208Z,65.66
2023-04-13T15:08:43.110Z,65.79
2023-04-13T15:11:11.010Z,65.84
2023-04-13T15:13:39.320Z,65.85
2023-04-13T15:16:07.947Z,65.70
2023-04-13T15:18:36.014Z,65.84
2023-04-13T15:21:04.116Z,66.00
2023-04-13T15:23:33.165Z,65.66
2023-04-13T15:26:01.242Z,65.58
2023-04-13T15:28:29.201Z,65.53
2023-04-13T15:30:57.300Z,65.61
2023-04-13T15:33:25.374Z,65.70
2023-04-13T15:35:53.413Z,65.67
2023-04-13T15:38:21.829Z,65.83
2023-04-13T15:40:49.821Z,65.88
2023-04-13T15:43:17.878Z,65.91
2023-04-13T15:45:48.518Z,65.97
2023-04-13T15:48:17.821Z,66.18
2023-04-13T15:50:45.783Z,66.35
2023-04-13T15:53:13.743Z,66.43
2023-04-13T15:55:42.507Z,66.68
2023-04-13T15:58:10.437Z,66.51
2023-04-13T16:00:38.462Z,66.53
2023-04-13T16:03:06.623Z,66.72
2023-04-13T16:05:34.590Z,66.66
2023-04-13T16:08:03.278Z,66.76
2023-04-13T16:10:31.354Z,67.01
2023-04-13T16:12:59.332Z,66.83
2023-04-13T16:15:27.354Z,66.68
2023-04-13T16:17:57.050Z,66.73
2023-04-13T16:20:28.359Z,66.80
2023-04-13T16:22:59.371Z,67.00
2023-04-13T16:25:27.267Z,67.19
2023-04-13T16:27:56.309Z,67.26
2023-04-13T16:30:24.461Z,67.27
2023-04-13T16:32:52.572Z,67.43
2023-04-13T16:35:20.776Z,67.45
2023-04-13T16:37:48.687Z,67.80
2023-04-13T16:40:16.998Z,67.70
2023-04-13T16:42:46.260Z,67.52
2023-04-13T16:45:15.217Z,67.71
2023-04-13T16:47:43.951Z,67.81
2023-04-13T16:50:12.648Z,67.84
2023-04-13T16:52:41.051Z,68.00
2023-04-13T16:55:14.033Z,68.13
2023-04-13T16:57:43.408Z,68.26
2023-04-13T17:00:12.998Z,68.49
2023-04-13T17:02:43.100Z,68.65
2023-04-13T17:05:12.705Z,68.80
2023-04-13T17:07:43.562Z,68.78
2023-04-13T17:10:13.655Z,68.82
2023-04-13T17:12:42.014Z,68.70
2023-04-13T17:15:10.631Z,68.87
2023-04-13T17:17:38.844Z,68.99
2023-04-13T17:20:08.501Z,69.02
2023-04-13T17:22:37.378Z,69.00
2023-04-13T17:25:05.840Z,69.08
2023-04-13T17:27:34.105Z,69.08
2023-04-13T17:30:02.163Z,69.14
2023-04-13T17:32:30.128Z,69.06
2023-04-13T17:34:58.585Z,69.05
2023-04-13T17:37:29.431Z,69.21
2023-04-13T17:39:57.823Z,69.20
2023-04-13T17:42:27.498Z,69.28
2023-04-13T17:44:56.173Z,69.15
2023-04-13T17:47:25.063Z,69.13
2023-04-13T17:49:53.647Z,69.37
2023-04-13T17:52:21.539Z,69.55
2023-04-13T17:54:49.694Z,69.64
2023-04-13T17:57:17.636Z,69.59
2023-04-13T17:59:46.718Z,69.71
2023-04-13T18:02:14.779Z,69.76
2023-04-13T18:04:43.084Z,69.73
2023-04-13T18:07:11.439Z,69.68
2023-04-13T18:09:39.443Z,69.68
2023-04-13T18:12:07.492Z,69.82
2023-04-13T18:14:35.861Z,69.85
2023-04-13T18:17:03.793Z,69.80
2023-04-13T18:19:32.654Z,69.95
2023-04-13T18:22:01.200Z,70.05
2023-04-13T18:24:29.387Z,70.01
2023-04-13T18:26:57.847Z,70.03
2023-04-13T18:29:26.250Z,70.14
2023-04-13T18:31:54.488Z,70.23
2023-04-13T18:34:22.563Z,70.28
2023-04-13T18:36:50.587Z,70.30
2023-04-13T18:39:19.223Z,70.17
2023-04-13T18:41:47.275Z,70.30
2023-04-13T18:44:15.905Z,70.24
2023-04-13T18:46:43.913Z,70.36
2023-04-13T18:49:11.735Z,70.32
2023-04-13T18:51:39.651Z,70.40
2023-04-13T18:54:07.925Z,70.48
2023-04-13T18:56:36.098Z,70.50
2023-04-13T18:59:04.012Z,70.58
2023-04-13T19:01:32.538Z,70.72
2023-04-13T19:04:01.426Z,70.72
2023-04-13T19:06:30.144Z,70.83
2023-04-13T19:08:58.305Z,70.86
2023-04-13T19:11:27.738Z,70.88
2023-04-13T19:13:56.855Z,70.98
2023-04-13T19:16:26.357Z,70.95
2023-04-13T19:18:54.451Z,71.01
2023-04-13T19:21:23.976Z,71.14
2023-04-13T19:23:52.914Z,71.14
2023-04-13T19:26:21.177Z,71.18
2023-04-13T19:28:49.095Z,71.33
2023-04-13T19:31:17.257Z,71.36
2023-04-13T19:33:46.442Z,71.34
2023-04-13T19:36:15.202Z,71.51
2023-04-13T19:38:45.133Z,71.60
2023-04-13T19:41:13.764Z,71.86
2023-04-13T19:43:42.011Z,71.78
2023-04-13T19:46:10.243Z,71.92
2023-04-13T19:48:39.130Z,71.83
2023-04-13T19:51:08.391Z,71.88
2023-04-13T19:53:38.247Z,72.03
2023-04-13T19:56:06.764Z,71.96
2023-04-13T19:58:35.162Z,71.96
2023-04-13T20:01:04.914Z,72.05
2023-04-13T20:03:33.541Z,72.10
2023-04-13T20:06:02.838Z,72.10
2023-04-13T20:08:30.911Z,72.11
2023-04-13T20:10:59.963Z,72.13
2023-04-13T20:13:28.001Z,72.07
2023-04-13T20:15:55.967Z,72.08
2023-04-13T20:18:23.906Z,72.19
2023-04-13T20:20:52.491Z,72.35
2023-04-13T20:23:20.338Z,72.33
2023-04-13T20:25:48.240Z,72.22
2023-04-13T20:28:17.906Z,72.30
2023-04-13T20:30:45.793Z,72.32
2023-04-13T20:33:13.989Z,72.26
2023-04-13T20:35:42.074Z,72.39
2023-04-13T20:38:10.167Z,72.38
2023-04-13T20:40:38.186Z,72.28
2023-04-13T20:43:06.380Z,72.30
2023-04-13T20:45:36.245Z,72.24
2023-04-13T20:50:35.729Z,72.51
2023-04-13T20:53:04.865Z,72.56
2023-04-13T20:55:33.326Z,72.72
2023-04-13T20:58:01.726Z,72.77
2023-04-13T21:00:29.997Z,72.76
2023-04-13T21:02:57.954Z,72.68
2023-04-13T21:05:26.051Z,72.78
2023-04-13T21:07:55.301Z,72.86
2023-04-13T21:10:24.985Z,73.00
2023-04-13T21:12:52.845Z,72.95
2023-04-13T21:15:20.904Z,73.11
2023-04-13T21:17:49.048Z,73.31
2023-04-13T21:20:16.980Z,73.48
2023-04-13T21:22:44.848Z,73.49
2023-04-13T21:25:12.709Z,73.48
2023-04-13T21:27:40.769Z,73.56
2023-04-13T21:30:09.054Z,73.70
2023-04-13T21:32:37.094Z,73.76
2023-04-13T21:35:05.476Z,73.82
2023-04-13T21:37:33.514Z,73.83
2023-04-13T21:40:01.365Z,73.84
2023-04-13T21:42:29.259Z,73.99
2023-04-13T21:44:57.305Z,73.93
2023-04-13T21:47:25.266Z,73.93
2023-04-13T21:49:53.210Z,73.90
2023-04-13T21:52:21.046Z,73.95
2023-04-13T21:54:51.395Z,73.99
2023-04-13T21:57:19.598Z,73.88
2023-04-13T21:59:47.479Z,74.01
2023-04-13T22:02:15.939Z,74.06
2023-04-13T22:04:43.917Z,74.03
2023-04-13T22:07:12.180Z,74.00
2023-04-13T22:09:40.493Z,74.24
2023-04-13T22:12:10.769Z,74.21
2023-04-13T22:14:38.629Z,74.33
2023-04-13T22:17:06.735Z,74.34
2023-04-13T22:19:34.604Z,74.40
2023-04-13T22:22:02.506Z,74.42
2023-04-13T22:24:30.374Z,74.51
2023-04-13T22:26:58.414Z,74.46
2023-04-13T22:29:26.340Z,74.50
2023-04-13T22:31:54.704Z,74.42
2023-04-13T22:34:22.652Z,74.38
2023-04-13T22:36:52.376Z,74.38
2023-04-13T22:39:20.611Z,74.39
2023-04-13T22:41:48.430Z,74.42
2023-04-13T22:44:16.275Z,74.50
2023-04-13T22:46:44.192Z,74.43
2023-04-13T22:49:12.028Z,74.36
2023-04-13T22:51:40.619Z,74.33
2023-04-13T22:54:08.449Z,74.31
2023-04-13T22:56:36.333Z,74.23
2023-04-13T22:59:04.219Z,74.30
2023-04-13T23:01:32.172Z,74.41
2023-04-13T23:04:00.250Z,74.55
2023-04-13T23:06:28.475Z,74.53
2023-04-13T23:08:59.032Z,74.61
2023-04-13T23:11:27.400Z,74.70
2023-04-13T23:13:55.377Z,74.73
2023-04-13T23:16:23.397Z,74.78
2023-04-13T23:18:51.263Z,74.69
2023-04-13T23:21:19.086Z,74.77
2023-04-13T23:23:46.959Z,74.82
2023-04-13T23:26:14.842Z,74.85
2023-04-13T23:28:42.748Z,74.75
2023-04-13T23:31:10.904Z,74.80
2023-04-13T23:33:39.006Z,74.89
2023-04-13T23:36:07.329Z,74.94
2023-04-13T23:38:35.697Z,75.07
2023-04-13T23:41:03.630Z,75.09
2023-04-13T23:43:32.513Z,74.96
2023-04-13T23:46:00.561Z,75.06
2023-04-13T23:48:28.488Z,74.93
2023-04-13T23:50:57.548Z,75.03
2023-04-13T23:53:25.404Z,74.90
2023-04-13T23:55:53.281Z,74.84
2023-04-13T23:58:21.157Z,74.87
